sensor_id;sensor_type;location;lat;lon;timestamp;pressure;altitude;pressure_sealevel;temperature;humidity
7200;BME280;3641;49.082;8.200;2022-10-31T00:01:00;100795.22;;;11.22;97.44
7200;BME280;3641;49.082;8.200;2022-10-31T00:03:27;100795.81;;;11.33;96.85
7200;BME280;3641;49.082;8.200;2022-10-31T00:05:53;100791.88;;;11.67;92.00
7200;BME280;3641;49.082;8.200;2022-10-31T00:08:20;100795.03;;;11.78;92.11
7200;BME280;3641;49.082;8.200;2022-10-31T00:10:47;100796.00;;;11.39;95.54
7200;BME280;3641;49.082;8.200;2022-10-31T00:13:14;100791.00;;;11.43;95.50
7200;BME280;3641;49.082;8.200;2022-10-31T00:15:41;100790.69;;;11.38;96.27
7200;BME280;3641;49.082;8.200;2022-10-31T00:18:08;100792.91;;;11.42;95.62
7200;BME280;3641;49.082;8.200;2022-10-31T00:20:35;100788.59;;;11.71;92.10
7200;BME280;3641;49.082;8.200;2022-10-31T00:23:02;100790.41;;;11.56;94.36
7200;BME280;3641;49.082;8.200;2022-10-31T00:25:33;100794.38;;;11.22;96.61
7200;BME280;3641;49.082;8.200;2022-10-31T00:28:01;100786.84;;;11.47;94.02
7200;BME280;3641;49.082;8.200;2022-10-31T00:30:28;100783.75;;;11.58;93.87
7200;BME280;3641;49.082;8.200;2022-10-31T00:32:54;100784.41;;;11.29;95.15
7200;BME280;3641;49.082;8.200;2022-10-31T00:35:21;100781.59;;;11.14;96.80
7200;BME280;3641;49.082;8.200;2022-10-31T00:37:47;100782.75;;;11.51;93.59
7200;BME280;3641;49.082;8.200;2022-10-31T00:40:13;100784.00;;;11.40;95.06
7200;BME280;3641;49.082;8.200;2022-10-31T00:42:40;100785.31;;;11.53;94.80
7200;BME280;3641;49.082;8.200;2022-10-31T00:45:09;100781.31;;;11.63;92.18
7200;BME280;3641;49.082;8.200;2022-10-31T00:47:36;100788.19;;;11.82;90.51
7200;BME280;3641;49.082;8.200;2022-10-31T00:50:03;100786.53;;;11.73;91.43
7200;BME280;3641;49.082;8.200;2022-10-31T00:52:30;100788.28;;;11.43;93.96
7200;BME280;3641;49.082;8.200;2022-10-31T00:54:56;100783.13;;;11.71;91.53
7200;BME280;3641;49.082;8.200;2022-10-31T00:57:23;100785.69;;;11.96;89.29
7200;BME280;3641;49.082;8.200;2022-10-31T00:59:49;100789.50;;;11.63;91.94
7200;BME280;3641;49.082;8.200;2022-10-31T01:02:17;100794.53;;;11.52;92.51
7200;BME280;3641;49.082;8.200;2022-10-31T01:04:43;100792.41;;;11.85;89.95
7200;BME280;3641;49.082;8.200;2022-10-31T01:07:10;100794.28;;;11.93;89.08
7200;BME280;3641;49.082;8.200;2022-10-31T01:09:37;100794.97;;;11.87;88.81
7200;BME280;3641;49.082;8.200;2022-10-31T01:12:04;100800.44;;;11.87;88.87
7200;BME280;3641;49.082;8.200;2022-10-31T01:14:30;100795.03;;;11.78;89.63
7200;BME280;3641;49.082;8.200;2022-10-31T01:16:57;100794.75;;;11.73;89.39
7200;BME280;3641;49.082;8.200;2022-10-31T01:19:25;100795.22;;;11.77;88.13
7200;BME280;3641;49.082;8.200;2022-10-31T01:21:53;100796.75;;;11.79;87.60
7200;BME280;3641;49.082;8.200;2022-10-31T01:24:20;100793.66;;;11.82;86.77
7200;BME280;3641;49.082;8.200;2022-10-31T01:26:46;100788.53;;;11.79;88.72
7200;BME280;3641;49.082;8.200;2022-10-31T01:29:13;100791.63;;;11.76;88.51
7200;BME280;3641;49.082;8.200;2022-10-31T01:31:39;100789.94;;;11.75;88.28
7200;BME280;3641;49.082;8.200;2022-10-31T01:34:06;100795.09;;;11.70;88.17
7200;BME280;3641;49.082;8.200;2022-10-31T01:36:35;100783.50;;;11.14;92.62
7200;BME280;3641;49.082;8.200;2022-10-31T01:39:04;100792.06;;;11.34;91.53
7200;BME280;3641;49.082;8.200;2022-10-31T01:41:33;100794.44;;;11.68;88.53
7200;BME280;3641;49.082;8.200;2022-10-31T01:44:02;100791.47;;;11.78;87.00
7200;BME280;3641;49.082;8.200;2022-10-31T01:46:33;100790.41;;;11.79;87.29
7200;BME280;3641;49.082;8.200;2022-10-31T01:49:03;100788.59;;;11.71;87.30
7200;BME280;3641;49.082;8.200;2022-10-31T01:51:36;100791.88;;;11.67;86.56
7200;BME280;3641;49.082;8.200;2022-10-31T01:54:06;100782.63;;;11.68;86.85
7200;BME280;3641;49.082;8.200;2022-10-31T01:56:37;100787.63;;;11.64;87.29
7200;BME280;3641;49.082;8.200;2022-10-31T01:59:07;100783.69;;;11.67;86.49
7200;BME280;3641;49.082;8.200;2022-10-31T02:01:35;100783.63;;;11.75;86.42
7200;BME280;3641;49.082;8.200;2022-10-31T02:04:02;100787.72;;;11.71;86.88
7200;BME280;3641;49.082;8.200;2022-10-31T02:06:34;100779.41;;;11.64;86.81
7200;BME280;3641;49.082;8.200;2022-10-31T02:09:04;100777.66;;;11.71;85.71
7200;BME280;3641;49.082;8.200;2022-10-31T02:11:32;100780.25;;;11.64;86.40
7200;BME280;3641;49.082;8.200;2022-10-31T02:14:02;100791.56;;;11.61;86.25
7200;BME280;3641;49.082;8.200;2022-10-31T02:16:28;100784.28;;;11.54;86.11
7200;BME280;3641;49.082;8.200;2022-10-31T02:18:55;100794.53;;;11.52;86.95
7200;BME280;3641;49.082;8.200;2022-10-31T02:21:26;100791.53;;;11.38;88.94
7200;BME280;3641;49.082;8.200;2022-10-31T02:27:11;100782.56;;;11.21;89.79
7200;BME280;3641;49.082;8.200;2022-10-31T02:30:06;100789.16;;;11.35;87.89
7200;BME280;3641;49.082;8.200;2022-10-31T02:32:46;100774.78;;;11.41;87.09
7200;BME280;3641;49.082;8.200;2022-10-31T02:35:24;100782.50;;;11.38;86.83
7200;BME280;3641;49.082;8.200;2022-10-31T02:37:57;100782.97;;;11.41;87.03
7200;BME280;3641;49.082;8.200;2022-10-31T02:40:32;100783.53;;;11.37;88.10
7200;BME280;3641;49.082;8.200;2022-10-31T02:43:03;100779.44;;;11.33;87.84
7200;BME280;3641;49.082;8.200;2022-10-31T02:45:36;100779.59;;;11.39;86.75
7200;BME280;3641;49.082;8.200;2022-10-31T02:48:09;100782.50;;;11.38;86.67
7200;BME280;3641;49.082;8.200;2022-10-31T02:50:40;100777.50;;;11.41;86.90
7200;BME280;3641;49.082;8.200;2022-10-31T02:53:07;100779.72;;;11.46;86.55
7200;BME280;3641;49.082;8.200;2022-10-31T02:55:46;100779.22;;;11.11;88.62
7200;BME280;3641;49.082;8.200;2022-10-31T02:58:18;100774.94;;;11.08;89.39
7200;BME280;3641;49.082;8.200;2022-10-31T03:00:57;100777.09;;;11.30;88.18
7200;BME280;3641;49.082;8.200;2022-10-31T03:03:34;100776.56;;;10.95;90.82
7200;BME280;3641;49.082;8.200;2022-10-31T03:06:07;100773.56;;;10.73;92.07
7200;BME280;3641;49.082;8.200;2022-10-31T03:08:39;100770.66;;;10.75;91.86
7200;BME280;3641;49.082;8.200;2022-10-31T03:11:08;100777.31;;;11.12;88.82
7200;BME280;3641;49.082;8.200;2022-10-31T03:13:39;100774.41;;;11.13;88.18
7200;BME280;3641;49.082;8.200;2022-10-31T03:16:11;100767.88;;;11.22;87.96
7200;BME280;3641;49.082;8.200;2022-10-31T03:18:43;100769.59;;;11.23;87.58
7200;BME280;3641;49.082;8.200;2022-10-31T03:21:14;100763.63;;;11.20;88.10
7200;BME280;3641;49.082;8.200;2022-10-31T03:23:44;100769.31;;;11.10;88.45
7200;BME280;3641;49.082;8.200;2022-10-31T03:26:13;100764.25;;;10.99;89.33
7200;BME280;3641;49.082;8.200;2022-10-31T03:28:43;100769.13;;;11.12;87.58
7200;BME280;3641;49.082;8.200;2022-10-31T03:31:15;100760.59;;;11.15;87.21
7200;BME280;3641;49.082;8.200;2022-10-31T03:33:45;100771.72;;;11.05;88.19
7200;BME280;3641;49.082;8.200;2022-10-31T03:36:14;100767.97;;;10.66;90.29
7200;BME280;3641;49.082;8.200;2022-10-31T03:38:43;100764.31;;;10.82;89.21
7200;BME280;3641;49.082;8.200;2022-10-31T03:41:12;100773.75;;;10.71;90.15
7200;BME280;3641;49.082;8.200;2022-10-31T03:43:43;100765.91;;;10.68;90.58
7200;BME280;3641;49.082;8.200;2022-10-31T03:46:12;100767.66;;;10.45;91.98
7200;BME280;3641;49.082;8.200;2022-10-31T03:48:39;100771.28;;;10.85;89.12
7200;BME280;3641;49.082;8.200;2022-10-31T03:51:11;100770.25;;;10.94;88.14
7200;BME280;3641;49.082;8.200;2022-10-31T03:53:46;100770.75;;;10.98;87.77
7200;BME280;3641;49.082;8.200;2022-10-31T03:56:21;100770.94;;;10.96;87.54
7200;BME280;3641;49.082;8.200;2022-10-31T03:58:55;100772.97;;;10.94;87.81
7200;BME280;3641;49.082;8.200;2022-10-31T04:01:26;100773.88;;;10.78;88.88
7200;BME280;3641;49.082;8.200;2022-10-31T04:03:56;100771.47;;;10.92;89.03
7200;BME280;3641;49.082;8.200;2022-10-31T04:06:24;100778.03;;;11.05;88.25
7200;BME280;3641;49.082;8.200;2022-10-31T04:08:55;100779.75;;;11.06;87.87
7200;BME280;3641;49.082;8.200;2022-10-31T04:11:25;100771.41;;;11.00;87.60
7200;BME280;3641;49.082;8.200;2022-10-31T04:13:55;100775.47;;;11.04;87.30
7200;BME280;3641;49.082;8.200;2022-10-31T04:16:23;100780.63;;;10.99;87.78
7200;BME280;3641;49.082;8.200;2022-10-31T04:18:51;100787.28;;;11.04;88.30
7200;BME280;3641;49.082;8.200;2022-10-31T04:21:18;100785.16;;;11.15;87.11
7200;BME280;3641;49.082;8.200;2022-10-31T04:23:46;100782.78;;;11.12;87.95
7200;BME280;3641;49.082;8.200;2022-10-31T04:26:12;100789.22;;;10.87;89.50
7200;BME280;3641;49.082;8.200;2022-10-31T04:28:39;100790.53;;;11.00;87.23
7200;BME280;3641;49.082;8.200;2022-10-31T04:31:05;100788.97;;;11.05;86.71
7200;BME280;3641;49.082;8.200;2022-10-31T04:33:32;100789.50;;;11.01;87.60
7200;BME280;3641;49.082;8.200;2022-10-31T04:35:58;100793.28;;;11.00;87.37
7200;BME280;3641;49.082;8.200;2022-10-31T04:38:24;100794.28;;;10.99;87.30
7200;BME280;3641;49.082;8.200;2022-10-31T04:40:52;100782.03;;;10.95;87.46
7200;BME280;3641;49.082;8.200;2022-10-31T04:43:19;100779.44;;;11.01;86.69
7200;BME280;3641;49.082;8.200;2022-10-31T04:45:45;100783.50;;;11.05;86.54
7200;BME280;3641;49.082;8.200;2022-10-31T04:48:12;100772.94;;;11.02;87.14
7200;BME280;3641;49.082;8.200;2022-10-31T04:50:38;100779.75;;;11.06;86.24
7200;BME280;3641;49.082;8.200;2022-10-31T04:53:05;100775.16;;;10.99;87.12
7200;BME280;3641;49.082;8.200;2022-10-31T04:55:31;100780.50;;;10.92;87.08
7200;BME280;3641;49.082;8.200;2022-10-31T04:57:59;100774.38;;;10.90;86.97
7200;BME280;3641;49.082;8.200;2022-10-31T05:00:25;100758.72;;;10.76;88.48
7200;BME280;3641;49.082;8.200;2022-10-31T05:02:53;100754.13;;;10.68;88.40
7200;BME280;3641;49.082;8.200;2022-10-31T05:05:21;100755.50;;;10.64;88.78
7200;BME280;3641;49.082;8.200;2022-10-31T05:07:49;100754.13;;;10.68;87.71
7200;BME280;3641;49.082;8.200;2022-10-31T05:10:17;100756.34;;;10.72;87.27
7200;BME280;3641;49.082;8.200;2022-10-31T05:12:48;100756.84;;;10.76;86.68
7200;BME280;3641;49.082;8.200;2022-10-31T05:15:16;100765.88;;;10.77;86.95
7200;BME280;3641;49.082;8.200;2022-10-31T05:17:44;100762.00;;;10.63;87.58
7200;BME280;3641;49.082;8.200;2022-10-31T05:20:11;100759.47;;;10.61;87.41
7200;BME280;3641;49.082;8.200;2022-10-31T05:22:41;100757.03;;;10.66;87.16
7200;BME280;3641;49.082;8.200;2022-10-31T05:25:08;100745.78;;;10.69;87.16
7200;BME280;3641;49.082;8.200;2022-10-31T05:27:38;100748.50;;;10.69;87.39
7200;BME280;3641;49.082;8.200;2022-10-31T05:30:05;100745.63;;;10.63;86.93
7200;BME280;3641;49.082;8.200;2022-10-31T05:32:37;100740.00;;;10.64;86.74
7200;BME280;3641;49.082;8.200;2022-10-31T05:35:05;100740.16;;;10.63;86.83
7200;BME280;3641;49.082;8.200;2022-10-31T05:37:33;100752.25;;;10.68;86.37
7200;BME280;3641;49.082;8.200;2022-10-31T05:39:59;100757.72;;;10.68;86.30
7200;BME280;3641;49.082;8.200;2022-10-31T05:42:26;100754.81;;;10.70;85.98
7200;BME280;3641;49.082;8.200;2022-10-31T05:44:52;100753.63;;;10.72;85.90
7200;BME280;3641;49.082;8.200;2022-10-31T05:47:19;100754.00;;;10.61;85.91
7200;BME280;3641;49.082;8.200;2022-10-31T05:49:47;100757.25;;;10.57;87.00
7200;BME280;3641;49.082;8.200;2022-10-31T05:52:13;100749.63;;;10.35;88.23
7200;BME280;3641;49.082;8.200;2022-10-31T05:54:40;100744.66;;;10.47;87.30
7200;BME280;3641;49.082;8.200;2022-10-31T05:57:06;100740.91;;;10.48;86.26
7200;BME280;3641;49.082;8.200;2022-10-31T05:59:33;100743.28;;;10.43;86.95
7200;BME280;3641;49.082;8.200;2022-10-31T06:01:59;100741.59;;;10.42;86.62
7200;BME280;3641;49.082;8.200;2022-10-31T06:04:25;100747.53;;;10.46;86.32
7200;BME280;3641;49.082;8.200;2022-10-31T06:06:53;100746.88;;;10.44;86.80
7200;BME280;3641;49.082;8.200;2022-10-31T06:09:20;100751.81;;;10.48;86.42
7200;BME280;3641;49.082;8.200;2022-10-31T06:11:46;100743.28;;;10.43;88.13
7200;BME280;3641;49.082;8.200;2022-10-31T06:14:13;100745.16;;;10.43;87.13
7200;BME280;3641;49.082;8.200;2022-10-31T06:16:39;100743.81;;;10.47;86.50
7200;BME280;3641;49.082;8.200;2022-10-31T06:19:06;100744.44;;;10.57;86.23
7200;BME280;3641;49.082;8.200;2022-10-31T06:21:32;100743.78;;;10.55;86.50
7200;BME280;3641;49.082;8.200;2022-10-31T06:24:01;100729.94;;;10.57;85.95
7200;BME280;3641;49.082;8.200;2022-10-31T06:26:27;100733.03;;;10.53;86.16
7200;BME280;3641;49.082;8.200;2022-10-31T06:28:54;100747.00;;;10.59;85.95
7200;BME280;3641;49.082;8.200;2022-10-31T06:31:20;100746.50;;;10.55;85.94
7200;BME280;3641;49.082;8.200;2022-10-31T06:33:47;100743.31;;;10.35;89.42
7200;BME280;3641;49.082;8.200;2022-10-31T06:36:13;100747.56;;;10.38;88.41
7200;BME280;3641;49.082;8.200;2022-10-31T06:38:40;100739.34;;;10.54;86.98
7200;BME280;3641;49.082;8.200;2022-10-31T06:41:08;100742.22;;;10.52;86.86
7200;BME280;3641;49.082;8.200;2022-10-31T06:43:35;100746.19;;;10.50;87.54
7200;BME280;3641;49.082;8.200;2022-10-31T06:46:02;100744.25;;;10.59;86.98
7200;BME280;3641;49.082;8.200;2022-10-31T06:48:28;100747.13;;;10.65;86.61
7200;BME280;3641;49.082;8.200;2022-10-31T06:50:57;100756.69;;;10.69;86.53
7200;BME280;3641;49.082;8.200;2022-10-31T06:53:23;100759.06;;;10.72;87.21
7200;BME280;3641;49.082;8.200;2022-10-31T06:55:50;100755.66;;;10.79;87.48
7200;BME280;3641;49.082;8.200;2022-10-31T06:58:18;100761.78;;;10.81;87.07
7200;BME280;3641;49.082;8.200;2022-10-31T07:00:44;100758.19;;;10.80;87.86
7200;BME280;3641;49.082;8.200;2022-10-31T07:03:12;100761.59;;;10.82;87.57
7200;BME280;3641;49.082;8.200;2022-10-31T07:05:39;100757.28;;;10.88;87.54
7200;BME280;3641;49.082;8.200;2022-10-31T07:08:07;100760.88;;;10.88;88.15
7200;BME280;3641;49.082;8.200;2022-10-31T07:10:36;100754.03;;;10.93;88.24
7200;BME280;3641;49.082;8.200;2022-10-31T07:13:05;100758.97;;;10.97;87.71
7200;BME280;3641;49.082;8.200;2022-10-31T07:15:35;100757.28;;;10.88;89.20
7200;BME280;3641;49.082;8.200;2022-10-31T07:18:02;100761.72;;;10.89;89.38
7200;BME280;3641;49.082;8.200;2022-10-31T07:20:30;100761.72;;;10.89;89.42
7200;BME280;3641;49.082;8.200;2022-10-31T07:22:57;100761.19;;;10.94;89.31
7200;BME280;3641;49.082;8.200;2022-10-31T07:25:24;100774.38;;;10.90;89.36
7200;BME280;3641;49.082;8.200;2022-10-31T07:27:51;100766.19;;;10.90;90.20
7200;BME280;3641;49.082;8.200;2022-10-31T07:30:17;100760.19;;;10.86;90.87
7200;BME280;3641;49.082;8.200;2022-10-31T07:32:46;100756.44;;;10.87;90.86
7200;BME280;3641;49.082;8.200;2022-10-31T07:35:15;100760.06;;;10.80;91.75
7200;BME280;3641;49.082;8.200;2022-10-31T07:37:42;100761.38;;;10.92;90.25
7200;BME280;3641;49.082;8.200;2022-10-31T07:40:10;100769.13;;;10.80;94.95
7200;BME280;3641;49.082;8.200;2022-10-31T07:42:37;100760.06;;;10.80;93.93
7200;BME280;3641;49.082;8.200;2022-10-31T07:45:05;100763.09;;;10.93;93.48
7200;BME280;3641;49.082;8.200;2022-10-31T07:47:38;100768.97;;;11.13;90.33
7200;BME280;3641;49.082;8.200;2022-10-31T07:50:06;100768.41;;;11.18;90.74
7200;BME280;3641;49.082;8.200;2022-10-31T07:52:33;100761.22;;;11.25;91.19
7200;BME280;3641;49.082;8.200;2022-10-31T07:54:59;100765.28;;;11.29;90.29
7200;BME280;3641;49.082;8.200;2022-10-31T07:57:26;100772.41;;;11.38;90.01
7200;BME280;3641;49.082;8.200;2022-10-31T07:59:52;100770.25;;;11.25;93.40
7200;BME280;3641;49.082;8.200;2022-10-31T08:02:19;100769.31;;;11.41;90.50
7200;BME280;3641;49.082;8.200;2022-10-31T08:04:45;100772.88;;;11.42;92.24
7200;BME280;3641;49.082;8.200;2022-10-31T08:07:13;100778.47;;;11.49;93.38
7200;BME280;3641;49.082;8.200;2022-10-31T08:09:40;100771.06;;;11.34;96.63
7200;BME280;3641;49.082;8.200;2022-10-31T08:12:06;100766.66;;;11.56;91.56
7200;BME280;3641;49.082;8.200;2022-10-31T08:14:33;100768.28;;;11.66;90.79
7200;BME280;3641;49.082;8.200;2022-10-31T08:16:59;100760.91;;;11.74;90.48
7200;BME280;3641;49.082;8.200;2022-10-31T08:19:26;100763.38;;;11.84;89.98
7200;BME280;3641;49.082;8.200;2022-10-31T08:21:52;100763.50;;;11.91;90.33
7200;BME280;3641;49.082;8.200;2022-10-31T08:24:21;100752.22;;;11.94;91.20
7200;BME280;3641;49.082;8.200;2022-10-31T08:26:48;100755.06;;;12.01;90.29
7200;BME280;3641;49.082;8.200;2022-10-31T08:29:14;100761.50;;;12.08;90.54
7200;BME280;3641;49.082;8.200;2022-10-31T08:31:41;100764.53;;;12.13;91.44
7200;BME280;3641;49.082;8.200;2022-10-31T08:34:08;100764.81;;;12.18;92.27
7200;BME280;3641;49.082;8.200;2022-10-31T08:36:34;100758.41;;;12.26;91.08
7200;BME280;3641;49.082;8.200;2022-10-31T08:39:02;100760.28;;;12.25;94.10
7200;BME280;3641;49.082;8.200;2022-10-31T08:41:30;100747.75;;;12.31;92.29
7200;BME280;3641;49.082;8.200;2022-10-31T08:43:57;100756.72;;;12.40;92.33
7200;BME280;3641;49.082;8.200;2022-10-31T08:46:23;100746.72;;;12.47;91.98
7200;BME280;3641;49.082;8.200;2022-10-31T08:48:50;100745.38;;;12.43;93.74
7200;BME280;3641;49.082;8.200;2022-10-31T08:51:16;100738.22;;;12.57;92.33
7200;BME280;3641;49.082;8.200;2022-10-31T08:53:43;100747.41;;;12.64;93.50
7200;BME280;3641;49.082;8.200;2022-10-31T08:56:09;100753.16;;;12.69;92.40
7200;BME280;3641;49.082;8.200;2022-10-31T08:58:37;100749.75;;;12.67;95.15
7200;BME280;3641;49.082;8.200;2022-10-31T09:01:03;100744.06;;;12.83;92.33
7200;BME280;3641;49.082;8.200;2022-10-31T09:03:30;100742.19;;;12.84;95.29
7200;BME280;3641;49.082;8.200;2022-10-31T09:05:59;100743.44;;;12.81;95.16
7200;BME280;3641;49.082;8.200;2022-10-31T09:08:26;100736.69;;;12.84;96.74
7200;BME280;3641;49.082;8.200;2022-10-31T09:10:55;100737.34;;;12.86;95.85
7200;BME280;3641;49.082;8.200;2022-10-31T09:13:22;100726.47;;;13.07;92.86
7200;BME280;3641;49.082;8.200;2022-10-31T09:15:51;100722.09;;;13.13;92.84
7200;BME280;3641;49.082;8.200;2022-10-31T09:18:19;100727.66;;;13.20;92.95
7200;BME280;3641;49.082;8.200;2022-10-31T09:20:47;100720.44;;;13.34;92.09
7200;BME280;3641;49.082;8.200;2022-10-31T09:23:16;100718.56;;;13.34;94.17
7200;BME280;3641;49.082;8.200;2022-10-31T09:25:43;100717.88;;;13.47;92.47
7200;BME280;3641;49.082;8.200;2022-10-31T09:28:11;100714.34;;;13.53;92.54
7200;BME280;3641;49.082;8.200;2022-10-31T09:30:38;100715.75;;;13.49;94.18
7200;BME280;3641;49.082;8.200;2022-10-31T09:33:09;100705.19;;;13.96;92.62
7200;BME280;3641;49.082;8.200;2022-10-31T09:35:36;100717.91;;;14.95;87.88
7200;BME280;3641;49.082;8.200;2022-10-31T09:38:05;100714.94;;;16.19;82.49
7200;BME280;3641;49.082;8.200;2022-10-31T09:40:34;100705.56;;;16.46;79.61
7200;BME280;3641;49.082;8.200;2022-10-31T09:43:09;100714.03;;;17.55;79.19
7200;BME280;3641;49.082;8.200;2022-10-31T09:45:43;100708.50;;;17.87;79.86
7200;BME280;3641;49.082;8.200;2022-10-31T09:51:11;100708.56;;;18.06;74.06
7200;BME280;3641;49.082;8.200;2022-10-31T09:53:42;100713.22;;;17.48;79.33
7200;BME280;3641;49.082;8.200;2022-10-31T09:56:12;100714.00;;;17.23;84.30
7200;BME280;3641;49.082;8.200;2022-10-31T09:58:42;100715.53;;;17.13;85.42
7200;BME280;3641;49.082;8.200;2022-10-31T10:01:28;100712.25;;;16.91;86.63
7200;BME280;3641;49.082;8.200;2022-10-31T10:04:00;100710.19;;;16.66;87.13
7200;BME280;3641;49.082;8.200;2022-10-31T10:06:29;100700.34;;;15.98;84.61
7200;BME280;3641;49.082;8.200;2022-10-31T10:08:59;100710.41;;;15.51;85.35
7200;BME280;3641;49.082;8.200;2022-10-31T10:11:35;100702.22;;;15.77;87.86
7200;BME280;3641;49.082;8.200;2022-10-31T10:14:17;100697.53;;;15.71;87.78
7200;BME280;3641;49.082;8.200;2022-10-31T10:16:57;100698.75;;;15.29;85.10
7200;BME280;3641;49.082;8.200;2022-10-31T10:19:41;100693.72;;;15.59;86.73
7200;BME280;3641;49.082;8.200;2022-10-31T10:22:15;100684.41;;;15.60;87.10
7200;BME280;3641;49.082;8.200;2022-10-31T10:24:59;100695.41;;;15.67;86.28
7200;BME280;3641;49.082;8.200;2022-10-31T10:27:38;100690.56;;;15.62;85.76
7200;BME280;3641;49.082;8.200;2022-10-31T10:30:13;100690.78;;;15.67;85.53
7200;BME280;3641;49.082;8.200;2022-10-31T10:32:43;100688.84;;;15.54;85.78
7200;BME280;3641;49.082;8.200;2022-10-31T10:35:19;100695.00;;;15.50;86.06
7200;BME280;3641;49.082;8.200;2022-10-31T10:37:49;100684.19;;;15.41;85.12
7200;BME280;3641;49.082;8.200;2022-10-31T10:40:19;100687.56;;;15.50;85.52
7200;BME280;3641;49.082;8.200;2022-10-31T10:42:56;100689.69;;;15.41;85.06
7200;BME280;3641;49.082;8.200;2022-10-31T10:45:47;100693.69;;;15.32;84.91
7200;BME280;3641;49.082;8.200;2022-10-31T10:48:39;100679.53;;;15.42;85.72
7200;BME280;3641;49.082;8.200;2022-10-31T10:51:18;100681.44;;;15.41;85.12
7200;BME280;3641;49.082;8.200;2022-10-31T10:53:54;100676.34;;;15.38;85.92
7200;BME280;3641;49.082;8.200;2022-10-31T10:56:36;100668.09;;;15.32;86.13
7200;BME280;3641;49.082;8.200;2022-10-31T10:59:09;100658.56;;;15.34;85.24
7200;BME280;3641;49.082;8.200;2022-10-31T11:01:38;100655.19;;;15.32;85.04
7200;BME280;3641;49.082;8.200;2022-10-31T11:04:27;100649.25;;;15.35;85.04
7200;BME280;3641;49.082;8.200;2022-10-31T11:07:00;100650.50;;;15.33;85.33
7200;BME280;3641;49.082;8.200;2022-10-31T11:09:27;100649.00;;;15.17;86.24
7200;BME280;3641;49.082;8.200;2022-10-31T11:11:55;100641.78;;;15.09;87.54
7200;BME280;3641;49.082;8.200;2022-10-31T11:14:23;100637.50;;;14.93;87.62
7200;BME280;3641;49.082;8.200;2022-10-31T11:16:52;100624.44;;;15.02;87.88
7200;BME280;3641;49.082;8.200;2022-10-31T11:19:22;100623.78;;;14.93;87.56
7200;BME280;3641;49.082;8.200;2022-10-31T11:21:49;100627.19;;;15.08;87.55
7200;BME280;3641;49.082;8.200;2022-10-31T11:24:18;100619.59;;;15.11;87.73
7200;BME280;3641;49.082;8.200;2022-10-31T11:26:47;100622.13;;;15.12;87.28
7200;BME280;3641;49.082;8.200;2022-10-31T11:29:16;100625.28;;;15.09;88.11
7200;BME280;3641;49.082;8.200;2022-10-31T11:31:45;100621.09;;;15.20;87.28
7200;BME280;3641;49.082;8.200;2022-10-31T11:34:18;100631.66;;;15.10;88.00
7200;BME280;3641;49.082;8.200;2022-10-31T11:36:46;100624.25;;;15.10;87.04
7200;BME280;3641;49.082;8.200;2022-10-31T11:39:18;100619.84;;;15.22;87.19
7200;BME280;3641;49.082;8.200;2022-10-31T11:41:46;100603.97;;;15.18;86.92
7200;BME280;3641;49.082;8.200;2022-10-31T11:44:16;100598.03;;;15.21;87.34
7200;BME280;3641;49.082;8.200;2022-10-31T11:46:45;100607.97;;;15.22;86.98
7200;BME280;3641;49.082;8.200;2022-10-31T11:49:15;100614.34;;;15.22;87.10
7200;BME280;3641;49.082;8.200;2022-10-31T11:51:48;100621.75;;;15.29;86.65
7200;BME280;3641;49.082;8.200;2022-10-31T11:54:21;100616.22;;;15.22;86.59
7200;BME280;3641;49.082;8.200;2022-10-31T11:56:49;100611.16;;;15.25;87.42
7200;BME280;3641;49.082;8.200;2022-10-31T11:59:21;100598.47;;;15.31;86.82
7200;BME280;3641;49.082;8.200;2022-10-31T12:01:49;100595.72;;;15.38;86.72
7200;BME280;3641;49.082;8.200;2022-10-31T12:04:16;100606.09;;;15.36;86.49
7200;BME280;3641;49.082;8.200;2022-10-31T12:06:44;100595.50;;;15.33;87.39
7200;BME280;3641;49.082;8.200;2022-10-31T12:09:22;100588.50;;;15.10;87.38
7200;BME280;3641;49.082;8.200;2022-10-31T12:12:10;100576.22;;;15.06;87.96
7200;BME280;3641;49.082;8.200;2022-10-31T12:14:48;100572.41;;;15.20;87.59
7200;BME280;3641;49.082;8.200;2022-10-31T12:17:18;100550.22;;;15.15;87.21
7200;BME280;3641;49.082;8.200;2022-10-31T12:19:59;100542.63;;;15.17;87.70
7200;BME280;3641;49.082;8.200;2022-10-31T12:22:34;100530.75;;;15.17;87.87
7200;BME280;3641;49.082;8.200;2022-10-31T12:25:21;100543.47;;;15.24;87.28
7200;BME280;3641;49.082;8.200;2022-10-31T12:28:00;100543.88;;;15.15;87.43
7200;BME280;3641;49.082;8.200;2022-10-31T12:30:40;100549.38;;;15.21;87.61
7200;BME280;3641;49.082;8.200;2022-10-31T12:33:26;100546.84;;;15.26;87.31
7200;BME280;3641;49.082;8.200;2022-10-31T12:36:09;100541.78;;;15.30;87.07
7200;BME280;3641;49.082;8.200;2022-10-31T12:41:42;100517.66;;;15.32;86.59
7200;BME280;3641;49.082;8.200;2022-10-31T12:44:18;100516.78;;;15.25;86.35
7200;BME280;3641;49.082;8.200;2022-10-31T12:47:02;100511.50;;;15.23;86.91
7200;BME280;3641;49.082;8.200;2022-10-31T12:49:44;100502.81;;;15.33;87.11
7200;BME280;3641;49.082;8.200;2022-10-31T12:52:31;100497.13;;;15.28;86.79
7200;BME280;3641;49.082;8.200;2022-10-31T12:55:10;100514.28;;;15.30;86.79
7200;BME280;3641;49.082;8.200;2022-10-31T12:57:44;100510.84;;;15.35;86.44
7200;BME280;3641;49.082;8.200;2022-10-31T13:00:13;100507.66;;;15.85;85.28
7200;BME280;3641;49.082;8.200;2022-10-31T13:02:44;100503.03;;;16.24;83.80
7200;BME280;3641;49.082;8.200;2022-10-31T13:05:18;100499.94;;;16.52;82.04
7200;BME280;3641;49.082;8.200;2022-10-31T13:07:50;100501.75;;;16.65;81.55
7200;BME280;3641;49.082;8.200;2022-10-31T13:10:21;100505.06;;;16.42;80.54
7200;BME280;3641;49.082;8.200;2022-10-31T13:12:53;100501.94;;;16.31;82.37
7200;BME280;3641;49.082;8.200;2022-10-31T13:15:23;100497.09;;;16.27;84.90
7200;BME280;3641;49.082;8.200;2022-10-31T13:17:53;100490.13;;;16.24;84.59
7200;BME280;3641;49.082;8.200;2022-10-31T13:20:24;100477.72;;;16.02;82.10
7200;BME280;3641;49.082;8.200;2022-10-31T13:22:54;100466.47;;;16.10;83.98
7200;BME280;3641;49.082;8.200;2022-10-31T13:25:24;100457.94;;;16.18;84.18
7200;BME280;3641;49.082;8.200;2022-10-31T13:27:56;100459.00;;;16.17;82.09
7200;BME280;3641;49.082;8.200;2022-10-31T13:30:26;100454.94;;;16.26;84.13
7200;BME280;3641;49.082;8.200;2022-10-31T13:32:58;100474.44;;;16.25;84.37